Terminal Aerodrome Forecast
Issued by NWS Louisville, KY

Home | Current Version | Previous Version | Text Only | Print | Product List | Glossary On
Versions: 1 2 3 4 5 6 7 8 9 10 11 12 13 14 15
000
FTUS43 KLMK 212300
TAFBWG
TAF
KBWG 212320Z 2200/2224 24007KT P6SM VCSH BKN050 OVC100
     FM221000 24005KT 4SM BR VCSH BKN015
     FM221500 30010KT P6SM BKN020=

USA.gov is the U.S. government's official web portal to all federal, state and local government web resources and services.